Time;durP1;ratioP1;P1;durP2;ratioP2;P2;SDS_P1;SDS_P2;PMS_P1;PMS_P2;Temp;Humidity;BMP_temperature;BMP_pressure;BME280_temperature;BME280_humidity;BME280_pressure;Samples;Min_cycle;Max_cycle;Signal;HPM_P1;HPM_P2
2023/01/04 00:00:29;;;;;;;;;;;;;;;19.48;63.87;100042.19;2081878;28;19925;-75
2023/01/04 00:01:30;;;;;;;;;;;;;;;19.47;63.73;100036.97;2082471;28;19925;-73
2023/01/04 00:02:30;;;;;;;;;;;;;;;19.42;63.86;100035.66;2082033;28;20516;-73
2023/01/04 00:03:32;;;;;;;;;;;;;;;19.42;63.88;100030.25;2082860;28;19925;-73
2023/01/04 00:04:32;;;;;;;;;;;;;;;19.43;63.98;100028.41;2081407;28;19929;-73
2023/01/04 00:05:34;;;;;;;;;;;;;;;19.45;63.72;100025.56;2080957;28;19931;-74
2023/01/04 00:06:34;;;;;;;;;;;;;;;19.42;63.78;100022.19;2081750;28;19925;-74
2023/01/04 00:07:36;;;;;;;;;;;;;;;19.41;63.82;100025.88;2081077;28;20043;-73
2023/01/04 00:08:37;;;;;;;;;;;;;;;19.41;64.00;100022.34;2081744;28;19924;-73
2023/01/04 00:09:39;;;;;;;;;;;;;;;19.39;63.96;100022.53;2081410;28;19921;-74
2023/01/04 00:10:39;;;;;;;;;;;;;;;19.38;63.59;100026.22;2082315;28;19932;-73
2023/01/04 00:11:41;;;;;;;;;;;;;;;19.37;64.04;100023.72;2079683;28;19932;-73
2023/01/04 00:12:41;;;;;;;;;;;;;;;19.36;63.72;100022.03;2082081;28;19986;-73
2023/01/04 00:13:44;;;;;;;;;;;;;;;19.37;64.05;100023.72;2081520;28;20406;-73
2023/01/04 00:14:45;;;;;;;;;;;;;;;19.38;63.75;100020.84;2080379;28;19920;-73
2023/01/04 00:15:47;;;;;;;;;;;;;;;19.35;64.02;100025.75;2081449;28;19924;-73
2023/01/04 00:16:47;;;;;;;;;;;;;;;19.33;63.81;100017.00;2081174;28;20008;-72
2023/01/04 00:17:49;;;;;;;;;;;;;;;19.31;63.75;100019.88;2081298;28;19924;-74
2023/01/04 00:18:50;;;;;;;;;;;;;;;19.31;64.28;100019.88;2081259;28;19929;-73
2023/01/04 00:19:51;;;;;;;;;;;;;;;19.31;64.22;100027.13;2080614;28;20452;-73
2023/01/04 00:20:52;;;;;;;;;;;;;;;19.31;64.01;100024.44;2081379;28;19921;-73
2023/01/04 00:21:53;;;;;;;;;;;;;;;19.31;63.97;100021.75;2081767;28;19955;-74
2023/01/04 00:22:54;;;;;;;;;;;;;;;19.29;63.92;100021.91;2082423;28;19921;-73
2023/01/04 00:23:56;;;;;;;;;;;;;;;19.29;63.83;100026.44;2080289;28;20704;-73
2023/01/04 00:24:58;;;;;;;;;;;;;;;19.29;64.00;100024.59;2082030;28;19924;-73
2023/01/04 00:25:58;;;;;;;;;;;;;;;19.28;64.23;100022.06;2081030;28;19927;-74
2023/01/04 00:27:00;;;;;;;;;;;;;;;19.27;64.26;100025.78;2082344;28;19960;-73
2023/01/04 00:28:00;;;;;;;;;;;;;;;19.25;64.08;100020.59;2081681;28;20348;-74
2023/01/04 00:29:04;;;;;;;;;;;;;;;19.25;64.27;100022.41;2081410;28;19921;-73
2023/01/04 00:30:05;;;;;;;;;;;;;;;19.24;64.02;100016.19;2081207;28;20504;-74
2023/01/04 00:31:08;;;;;;;;;;;;;;;19.24;63.87;100018.06;2081891;28;19964;-73
2023/01/04 00:32:08;;;;;;;;;;;;;;;19.23;64.25;100022.59;2084516;28;19924;-73
2023/01/04 00:33:09;;;;;;;;;;;;;;;19.24;64.01;100023.44;2081876;28;20400;-74
2023/01/04 00:34:11;;;;;;;;;;;;;;;19.23;63.97;100024.47;2082089;28;19921;-74
2023/01/04 00:35:13;;;;;;;;;;;;;;;19.24;64.33;100028.81;2081387;28;20007;-74
2023/01/04 00:36:14;;;;;;;;;;;;;;;19.23;63.96;100022.59;2082817;28;19928;-74
2023/01/04 00:37:15;;;;;;;;;;;;;;;19.21;64.23;100030.00;2083786;28;19924;-74
2023/01/04 00:38:16;;;;;;;;;;;;;;;19.20;64.34;100021.09;2084686;28;19921;-73
2023/01/04 00:39:17;;;;;;;;;;;;;;;19.20;64.00;100031.84;2083009;28;20554;-73
2023/01/04 00:40:18;;;;;;;;;;;;;;;19.20;64.10;100026.47;2082388;28;19982;-72
2023/01/04 00:41:19;;;;;;;;;;;;;;;19.19;63.99;100030.19;2082136;28;19925;-73
2023/01/04 00:42:19;;;;;;;;;;;;;;;19.19;63.97;100026.63;2082646;28;19982;-73
2023/01/04 00:43:21;;;;;;;;;;;;;;;19.17;64.10;100032.22;2082285;28;20483;-74
2023/01/04 00:44:23;;;;;;;;;;;;;;;19.17;64.35;100034.91;2083268;28;20466;-74
2023/01/04 00:45:24;;;;;;;;;;;;;;;19.19;64.24;100040.09;2082186;28;19921;-73
2023/01/04 00:46:25;;;;;;;;;;;;;;;19.17;64.25;100034.91;2083144;28;20404;-75
2023/01/04 00:47:26;;;;;;;;;;;;;;;19.18;63.92;100035.72;2082963;28;19924;-74
2023/01/04 00:48:27;;;;;;;;;;;;;;;19.15;64.02;100030.69;2084487;28;19936;-73
2023/01/04 00:49:29;;;;;;;;;;;;;;;19.14;64.39;100032.56;2083154;28;19925;-74
2023/01/04 00:50:29;;;;;;;;;;;;;;;19.14;64.34;100024.50;2082411;28;20288;-73
2023/01/04 00:51:31;;;;;;;;;;;;;;;19.15;64.13;100031.53;2083081;28;19929;-73
2023/01/04 00:52:32;;;;;;;;;;;;;;;19.13;63.93;100028.16;2083755;28;19924;-73
2023/01/04 00:53:34;;;;;;;;;;;;;;;19.12;64.43;100036.44;2082367;28;19928;-73
2023/01/04 00:54:34;;;;;;;;;;;;;;;19.12;64.26;100031.06;2082193;28;19998;-73
2023/01/04 00:55:36;;;;;;;;;;;;;;;19.10;64.16;100033.06;2082518;28;19933;-73
2023/01/04 00:56:37;;;;;;;;;;;;;;;19.09;64.40;100032.22;2083370;28;19927;-74
2023/01/04 00:57:38;;;;;;;;;;;;;;;19.11;64.40;100035.59;2082973;28;19920;-74
2023/01/04 00:58:39;;;;;;;;;;;;;;;19.09;64.00;100034.09;2083062;28;19970;-74
2023/01/04 00:59:42;;;;;;;;;;;;;;;19.09;64.25;100026.03;2083065;28;19929;-74
2023/01/04 01:00:42;;;;;;;;;;;;;;;19.09;64.00;100032.22;2081427;28;19924;-74
2023/01/04 01:01:44;;;;;;;;;;;;;;;19.08;64.04;100029.69;2084713;28;19939;-74
2023/01/04 01:02:45;;;;;;;;;;;;;;;19.08;64.37;100029.69;2083597;28;21786;-74
2023/01/04 01:03:46;;;;;;;;;;;;;;;19.06;64.06;100026.38;2083289;28;19928;-73
2023/01/04 01:04:48;;;;;;;;;;;;;;;19.05;64.41;100020.13;2083380;28;19921;-73
2023/01/04 01:05:48;;;;;;;;;;;;;;;19.05;64.43;100017.44;2082325;28;20295;-73
2023/01/04 01:06:51;;;;;;;;;;;;;;;19.05;64.22;100024.69;2082667;28;19939;-73
2023/01/04 01:07:51;;;;;;;;;;;;;;;19.04;64.17;100018.47;2082968;28;20454;-72
2023/01/04 01:08:53;;;;;;;;;;;;;;;19.04;64.44;100014.94;2083231;28;19974;-73
2023/01/04 01:09:53;;;;;;;;;;;;;;;19.03;64.38;100015.94;2082901;28;19974;-73
2023/01/04 01:10:55;;;;;;;;;;;;;;;19.03;64.45;100011.41;2083106;28;19925;-73
2023/01/04 01:11:56;;;;;;;;;;;;;;;19.01;64.16;100013.44;2083337;28;19925;-73
2023/01/04 01:12:57;;;;;;;;;;;;;;;19.01;64.46;100008.06;2083572;28;19925;-74
2023/01/04 01:13:58;;;;;;;;;;;;;;;19.01;64.46;100015.28;2081517;28;19925;-72
2023/01/04 01:15:00;;;;;;;;;;;;;;;19.03;64.12;100007.88;2082609;28;19940;-74
2023/01/04 01:16:02;;;;;;;;;;;;;;;19.01;64.39;100016.13;2082523;28;19920;-73
2023/01/04 01:17:03;;;;;;;;;;;;;;;19.01;64.04;100004.53;2083201;28;19974;-73
2023/01/04 01:18:04;;;;;;;;;;;;;;;19.02;64.44;100011.56;2082220;28;19982;-74
2023/01/04 01:19:04;;;;;;;;;;;;;;;19.01;64.47;100007.22;2082910;28;21580;-73
2023/01/04 01:20:07;;;;;;;;;;;;;;;19.00;64.08;100008.22;2082585;28;19928;-74
2023/01/04 01:21:09;;;;;;;;;;;;;;;19.00;64.38;100010.91;2082732;28;20325;-73
2023/01/04 01:22:10;;;;;;;;;;;;;;;18.97;64.23;100010.25;2082880;28;19927;-73
2023/01/04 01:23:12;;;;;;;;;;;;;;;18.97;64.39;100004.88;2083955;28;19929;-73
2023/01/04 01:24:15;;;;;;;;;;;;;;;18.97;64.23;100010.25;2081870;28;19928;-73
2023/01/04 01:25:16;;;;;;;;;;;;;;;18.98;64.13;100011.94;2083029;28;19970;-73
2023/01/04 01:26:18;;;;;;;;;;;;;;;18.99;64.40;100015.44;2083230;28;20443;-73
2023/01/04 01:27:19;;;;;;;;;;;;;;;18.96;64.22;100008.56;2081991;28;19924;-73
2023/01/04 01:28:20;;;;;;;;;;;;;;;18.96;64.09;100011.25;2083169;28;19929;-73
2023/01/04 01:29:21;;;;;;;;;;;;;;;18.94;64.27;100018.69;2082656;28;19978;-74
2023/01/04 01:30:24;;;;;;;;;;;;;;;18.95;64.13;100012.28;2083439;28;19979;-74
2023/01/04 01:31:25;;;;;;;;;;;;;;;18.93;64.43;100011.59;2081745;28;20290;-74
2023/01/04 01:32:27;;;;;;;;;;;;;;;18.92;64.76;100009.94;2083777;28;20395;-74
2023/01/04 01:33:27;;;;;;;;;;;;;;;18.93;64.50;100016.97;2081997;28;19924;-75
2023/01/04 01:34:29;;;;;;;;;;;;;;;18.92;64.25;100007.25;2083240;28;20616;-74
2023/01/04 01:35:31;;;;;;;;;;;;;;;18.92;64.22;100009.94;2083393;28;19925;-73
2023/01/04 01:36:32;;;;;;;;;;;;;;;18.91;64.36;100008.22;2083168;28;19944;-73
2023/01/04 01:37:33;;;;;;;;;;;;;;;18.90;64.32;100016.50;2082808;28;19998;-73
2023/01/04 01:38:35;;;;;;;;;;;;;;;18.92;64.50;100018.00;2082735;28;19967;-72
2023/01/04 01:39:37;;;;;;;;;;;;;;;18.90;64.28;100019.19;2082579;28;20062;-73
2023/01/04 01:40:39;;;;;;;;;;;;;;;18.88;64.54;100018.50;2083206;28;20356;-73
2023/01/04 01:41:41;;;;;;;;;;;;;;;18.87;64.49;100014.16;2082373;28;19928;-73
2023/01/04 01:42:41;;;;;;;;;;;;;;;18.86;64.73;100020.50;2082666;28;19970;-73
2023/01/04 01:43:48;;;;;;;;;;;;;;;18.86;64.36;100016.00;2080921;28;19978;-73
2023/01/04 01:44:56;;;;;;;;;;;;;;;18.87;64.56;100024.91;2083173;28;19932;-73
2023/01/04 01:45:59;;;;;;;;;;;;;;;18.85;64.40;100018.84;2081948;28;19954;-73
2023/01/04 01:47:00;;;;;;;;;;;;;;;18.84;64.58;100023.41;2083842;28;19925;-72
2023/01/04 01:48:04;;;;;;;;;;;;;;;18.84;64.31;100017.19;2081519;28;19971;-73
2023/01/04 01:49:10;;;;;;;;;;;;;;;18.84;64.47;100022.56;2082992;28;19928;-73
2023/01/04 01:50:18;;;;;;;;;;;;;;;18.84;64.34;100022.56;2083400;28;19977;-73
2023/01/04 01:51:21;;;;;;;;;;;;;;;18.83;64.65;100024.38;2082882;28;19978;-73
2023/01/04 01:52:23;;;;;;;;;;;;;;;18.81;64.42;100014.84;2081977;28;19920;-74
2023/01/04 01:53:26;;;;;;;;;;;;;;;18.82;64.59;100017.34;2082549;28;19927;-73
2023/01/04 01:54:30;;;;;;;;;;;;;;;18.81;64.54;100018.38;2082270;28;19924;-75
2023/01/04 01:55:33;;;;;;;;;;;;;;;18.80;64.55;100016.66;2082418;28;20597;-73
2023/01/04 01:56:36;;;;;;;;;;;;;;;18.80;64.26;100016.66;2083834;28;19920;-73
2023/01/04 01:57:38;;;;;;;;;;;;;;;18.79;64.36;100017.69;2082275;28;19921;-74
2023/01/04 01:58:40;;;;;;;;;;;;;;;18.80;64.25;100016.66;2083849;28;19973;-73
2023/01/04 01:59:44;;;;;;;;;;;;;;;18.79;64.29;100020.38;2075977;28;19929;-74
2023/01/04 02:00:44;;;;;;;;;;;;;;;18.77;64.64;100022.38;2077872;28;20673;-73
2023/01/04 02:01:47;;;;;;;;;;;;;;;18.78;64.58;100017.84;2082279;28;19925;-73
2023/01/04 02:02:51;;;;;;;;;;;;;;;18.77;64.48;100022.38;2079946;28;19992;-74
2023/01/04 02:03:53;;;;;;;;;;;;;;;18.75;64.69;100025.25;2083402;28;19920;-74
2023/01/04 02:04:54;;;;;;;;;;;;;;;18.77;64.31;100021.56;2079860;28;19925;-74
2023/01/04 02:05:57;;;;;;;;;;;;;;;18.76;64.67;100026.09;2080360;28;19928;-74
2023/01/04 02:06:58;;;;;;;;;;;;;;;18.75;64.50;100022.56;2077799;28;20302;-73
2023/01/04 02:08:00;;;;;;;;;;;;;;;18.73;64.50;100026.41;2082687;28;20033;-74
2023/01/04 02:09:02;;;;;;;;;;;;;;;18.72;64.50;100025.56;2080911;28;19932;-73
2023/01/04 02:10:03;;;;;;;;;;;;;;;18.71;64.55;100023.03;2083216;28;21097;-74
2023/01/04 02:11:04;;;;;;;;;;;;;;;18.71;64.77;100014.97;2082615;28;20002;-73
2023/01/04 02:12:10;;;;;;;;;;;;;;;18.70;64.75;100011.47;2083699;28;19921;-73
2023/01/04 02:13:13;;;;;;;;;;;;;;;18.70;64.65;100019.53;2082648;28;20401;-74
2023/01/04 02:14:28;;;;;;;;;;;;;;;18.70;64.66;100022.22;2082479;28;19931;-73
2023/01/04 02:15:34;;;;;;;;;;;;;;;18.70;64.78;100021.38;2082661;28;20389;-73
2023/01/04 02:16:56;;;;;;;;;;;;;;;18.69;64.64;100014.31;2081604;28;20007;-74
2023/01/04 02:18:02;;;;;;;;;;;;;;;18.68;64.50;100015.31;2065401;28;20381;-74
2023/01/04 02:19:15;;;;;;;;;;;;;;;18.67;64.51;100017.19;2082532;28;19924;-73
2023/01/04 02:20:24;;;;;;;;;;;;;;;18.66;64.63;100014.66;2083230;28;19924;-74
2023/01/04 02:21:31;;;;;;;;;;;;;;;18.66;64.60;100017.34;2081934;28;20436;-74
2023/01/04 02:22:46;;;;;;;;;;;;;;;18.67;64.58;100019.03;2082061;28;19921;-73
2023/01/04 02:23:57;;;;;;;;;;;;;;;18.65;64.77;100016.50;2082554;28;20990;-73
2023/01/04 02:25:13;;;;;;;;;;;;;;;18.66;64.73;100011.97;2081923;28;19936;-73
2023/01/04 02:26:32;;;;;;;;;;;;;;;18.66;64.60;100017.34;2082252;28;20007;-73
2023/01/04 02:27:41;;;;;;;;;;;;;;;18.63;64.53;100012.31;2080796;28;19939;-73
2023/01/04 02:28:58;;;;;;;;;;;;;;;18.63;64.67;100004.25;2083263;28;19970;-73
2023/01/04 02:30:24;;;;;;;;;;;;;;;18.63;64.56;99999.69;2083096;28;19921;-73
2023/01/04 02:31:33;;;;;;;;;;;;;;;18.64;64.70;100003.25;2080033;28;20107;-74
2023/01/04 02:32:43;;;;;;;;;;;;;;;18.62;64.65;100006.09;2081359;28;19931;-73
2023/01/04 02:33:49;;;;;;;;;;;;;;;18.62;64.82;100007.94;2081903;28;19967;-73
2023/01/04 02:34:56;;;;;;;;;;;;;;;18.62;64.56;100002.56;2081696;28;19924;-73
2023/01/04 02:35:58;;;;;;;;;;;;;;;18.61;64.84;100003.56;2081896;28;20318;-73
2023/01/04 02:37:05;;;;;;;;;;;;;;;18.62;64.63;99997.19;2083230;28;19924;-73
2023/01/04 02:38:13;;;;;;;;;;;;;;;18.63;64.44;99998.88;2082311;28;20465;-73
2023/01/04 02:39:23;;;;;;;;;;;;;;;18.60;64.64;99999.22;2082546;28;19925;-73
2023/01/04 02:40:28;;;;;;;;;;;;;;;18.59;64.57;99986.78;2083185;28;19974;-74
2023/01/04 02:41:33;;;;;;;;;;;;;;;18.58;64.92;99993.16;2070995;28;19940;-74
2023/01/04 02:45:21;;;;;;;;;;;;;;;18.58;64.61;99993.16;2082615;28;20019;-73
2023/01/04 02:46:26;;;;;;;;;;;;;;;18.55;64.47;99983.59;2083102;28;19927;-73
2023/01/04 02:50:31;;;;;;;;;;;;;;;18.55;64.82;99994.34;2074325;28;19925;-74
2023/01/04 02:51:33;;;;;;;;;;;;;;;18.53;64.97;99993.69;2082044;28;20065;-73
2023/01/04 02:52:34;;;;;;;;;;;;;;;18.52;64.97;99992.81;2081015;28;19928;-73
2023/01/04 02:53:37;;;;;;;;;;;;;;;18.51;65.00;99996.53;2082754;28;20397;-74
2023/01/04 02:54:38;;;;;;;;;;;;;;;18.52;64.90;99990.13;2081812;28;19952;-73
2023/01/04 02:55:55;;;;;;;;;;;;;;;18.49;64.80;99993.16;2083094;28;19924;-74
2023/01/04 02:57:01;;;;;;;;;;;;;;;18.49;64.67;99992.34;2069550;28;20655;-73
2023/01/04 02:58:07;;;;;;;;;;;;;;;18.49;64.68;99993.16;2074750;28;19920;-72
2023/01/04 02:59:23;;;;;;;;;;;;;;;18.48;64.97;100001.41;2079679;28;19965;-74
2023/01/04 03:00:29;;;;;;;;;;;;;;;18.48;64.75;99996.88;2080718;28;19931;-74
2023/01/04 03:06:17;;;;;;;;;;;;;;;18.50;64.85;100008.31;2081987;28;20344;-73
2023/01/04 03:07:23;;;;;;;;;;;;;;;18.47;64.71;100005.97;2081802;28;19936;-74
2023/01/04 03:08:28;;;;;;;;;;;;;;;18.46;64.91;100001.56;2081781;28;19970;-74
2023/01/04 03:09:32;;;;;;;;;;;;;;;18.45;64.88;100007.13;2081738;28;19928;-74
2023/01/04 03:10:39;;;;;;;;;;;;;;;18.46;64.83;100009.63;2081727;28;19966;-74
2023/01/04 03:13:02;;;;;;;;;;;;;;;18.44;64.73;100003.63;2081660;28;19925;-74
2023/01/04 03:14:06;;;;;;;;;;;;;;;18.45;64.73;99993.69;2082212;28;19921;-73
2023/01/04 03:15:11;;;;;;;;;;;;;;;18.44;65.03;99997.38;2083659;28;19925;-74
2023/01/04 03:16:13;;;;;;;;;;;;;;;18.44;64.73;100006.31;2081790;28;19929;-73
2023/01/04 03:17:16;;;;;;;;;;;;;;;18.42;64.61;100002.94;2082977;28;20006;-73
2023/01/04 03:18:20;;;;;;;;;;;;;;;18.42;64.86;100002.94;2080094;28;19970;-74
2023/01/04 03:20:42;;;;;;;;;;;;;;;18.39;65.14;100000.59;2080112;28;20504;-73
2023/01/04 03:21:44;;;;;;;;;;;;;;;18.39;64.87;100005.13;2078971;28;19990;-73
2023/01/04 03:35:23;;;;;;;;;;;;;;;18.37;65.11;99997.22;2081338;28;20587;-74
2023/01/04 03:36:32;;;;;;;;;;;;;;;18.35;65.03;99993.84;2081549;28;20456;-73
2023/01/04 03:37:37;;;;;;;;;;;;;;;18.37;65.02;99997.22;2081980;28;20259;-73
2023/01/04 03:48:36;;;;;;;;;;;;;;;18.33;65.08;99978.91;2081993;28;19929;-74
2023/01/04 03:49:40;;;;;;;;;;;;;;;18.30;64.82;99994.38;2081690;28;19929;-73
2023/01/04 03:50:45;;;;;;;;;;;;;;;18.31;65.10;99989.84;2082773;28;20278;-74
2023/01/04 03:51:49;;;;;;;;;;;;;;;18.30;64.88;99989.00;2082488;28;19931;-74
2023/01/04 03:52:50;;;;;;;;;;;;;;;18.30;64.74;99985.47;2080971;28;19920;-73
2023/01/04 03:53:55;;;;;;;;;;;;;;;18.29;65.17;99984.63;2081476;28;20023;-73
2023/01/04 03:54:57;;;;;;;;;;;;;;;18.28;64.76;99987.50;2081131;28;19925;-73
2023/01/04 03:55:59;;;;;;;;;;;;;;;18.28;65.13;99988.34;2081132;28;19925;-74
2023/01/04 03:57:01;;;;;;;;;;;;;;;18.28;65.08;99982.97;2081884;28;19924;-73
2023/01/04 03:58:03;;;;;;;;;;;;;;;18.29;65.21;99981.94;2082006;28;20012;-74
2023/01/04 03:59:04;;;;;;;;;;;;;;;18.29;65.13;99984.63;2081000;28;19931;-73
2023/01/04 04:00:08;;;;;;;;;;;;;;;18.29;65.09;99986.47;2082465;28;19947;-73
2023/01/04 04:01:10;;;;;;;;;;;;;;;18.27;65.11;99983.13;2081304;28;19925;-74
2023/01/04 04:02:12;;;;;;;;;;;;;;;18.26;65.07;99984.13;2082686;28;19933;-74
2023/01/04 04:03:14;;;;;;;;;;;;;;;18.27;65.14;99983.94;2079213;28;19927;-73
2023/01/04 04:08:27;;;;;;;;;;;;;;;18.27;65.02;99980.44;2081850;28;20298;-74
2023/01/04 04:09:28;;;;;;;;;;;;;;;18.27;64.96;99977.75;2081032;28;19929;-73
2023/01/04 04:10:29;;;;;;;;;;;;;;;18.26;64.94;99965.34;2081550;28;20011;-73
2023/01/04 04:11:30;;;;;;;;;;;;;;;18.25;64.85;99979.78;2083554;28;19925;-73
2023/01/04 04:12:32;;;;;;;;;;;;;;;18.25;64.88;99974.41;2083063;28;19928;-72
2023/01/04 04:13:32;;;;;;;;;;;;;;;18.23;64.77;99973.72;2082143;28;19939;-74
2023/01/04 04:14:34;;;;;;;;;;;;;;;18.26;64.84;99978.75;2076268;28;20308;-73
2023/01/04 04:15:35;;;;;;;;;;;;;;;18.24;64.97;99981.59;2081630;28;19928;-73
2023/01/04 04:16:37;;;;;;;;;;;;;;;18.24;65.11;99978.91;2083362;28;20012;-73
2023/01/04 04:17:37;;;;;;;;;;;;;;;18.24;65.07;99972.72;2078388;28;19921;-74
2023/01/04 04:18:39;;;;;;;;;;;;;;;18.24;65.04;99980.78;2079509;28;19978;-74
2023/01/04 04:19:40;;;;;;;;;;;;;;;18.24;65.12;99975.41;2084035;28;19925;-73
2023/01/04 04:20:41;;;;;;;;;;;;;;;18.23;64.80;99976.41;2081053;28;19928;-74
2023/01/04 04:21:42;;;;;;;;;;;;;;;18.23;64.79;99981.78;2081261;28;19947;-72
2023/01/04 04:22:44;;;;;;;;;;;;;;;18.22;65.08;99980.97;2083277;28;19931;-73
2023/01/04 04:23:46;;;;;;;;;;;;;;;18.22;65.12;99980.09;2081839;28;20005;-74
2023/01/04 04:24:47;;;;;;;;;;;;;;;18.23;64.83;99981.78;2083875;28;20033;-73
2023/01/04 04:25:48;;;;;;;;;;;;;;;18.22;65.10;99991.69;2082560;28;19925;-74
2023/01/04 04:26:49;;;;;;;;;;;;;;;18.19;65.10;99985.81;2082413;28;19947;-73
2023/01/04 04:27:50;;;;;;;;;;;;;;;18.21;65.00;99989.16;2083368;28;19921;-73
2023/01/04 04:28:51;;;;;;;;;;;;;;;18.20;64.94;99984.81;2081596;28;20471;-73
2023/01/04 04:29:52;;;;;;;;;;;;;;;18.19;64.77;99981.28;2082515;28;21033;-74
2023/01/04 04:30:53;;;;;;;;;;;;;;;18.18;65.06;99982.28;2083341;28;20386;-73
2023/01/04 04:31:53;;;;;;;;;;;;;;;18.20;64.94;99982.13;2083145;28;19929;-73
2023/01/04 04:32:56;;;;;;;;;;;;;;;18.17;64.95;99990.53;2081989;28;20393;-73
2023/01/04 04:33:56;;;;;;;;;;;;;;;18.15;65.07;99987.16;2082641;28;19936;-74
2023/01/04 04:34:57;;;;;;;;;;;;;;;18.12;65.22;99990.19;2082861;28;19976;-73
2023/01/04 04:35:58;;;;;;;;;;;;;;;18.14;65.36;99989.00;2083517;28;20580;-73
2023/01/04 04:37:00;;;;;;;;;;;;;;;18.17;65.08;99990.53;2083531;28;19921;-74
2023/01/04 04:38:01;;;;;;;;;;;;;;;18.23;64.92;99992.53;2082125;28;19931;-73
2023/01/04 04:39:03;;;;;;;;;;;;;;;18.30;64.57;99983.66;2083079;28;19920;-74
2023/01/04 04:40:04;;;;;;;;;;;;;;;18.35;64.60;99976.91;2082950;28;19924;-73
2023/01/04 04:42:25;;;;;;;;;;;;;;;18.48;64.26;99985.28;2083746;28;20051;-74
2023/01/04 04:43:26;;;;;;;;;;;;;;;18.54;64.29;99985.44;2081680;28;20366;-73
2023/01/04 04:44:27;;;;;;;;;;;;;;;18.59;64.12;99984.09;2082741;28;19989;-74
2023/01/04 04:45:28;;;;;;;;;;;;;;;18.64;63.96;99977.22;2083270;28;20347;-73
2023/01/04 04:46:29;;;;;;;;;;;;;;;18.68;63.80;99981.22;2082918;28;20302;-73
2023/01/04 04:47:30;;;;;;;;;;;;;;;18.73;63.72;99980.72;2083388;28;19925;-73
2023/01/04 04:48:31;;;;;;;;;;;;;;;18.74;63.67;99977.03;2083531;28;19955;-73
2023/01/04 04:49:32;;;;;;;;;;;;;;;18.79;63.62;99980.06;2081909;28;20547;-73
2023/01/04 04:50:33;;;;;;;;;;;;;;;18.82;63.62;99981.56;2084497;28;19997;-74
2023/01/04 04:51:34;;;;;;;;;;;;;;;18.83;63.46;99981.38;2083216;28;20390;-73
2023/01/04 04:52:35;;;;;;;;;;;;;;;18.86;63.61;99985.56;2083327;28;20641;-73
2023/01/04 04:53:38;;;;;;;;;;;;;;;18.85;63.91;99976.66;2083359;28;19920;-74
2023/01/04 04:54:38;;;;;;;;;;;;;;;18.87;63.57;99979.19;2082069;28;19920;-73
2023/01/04 04:55:40;;;;;;;;;;;;;;;18.90;63.64;99979.69;2082502;28;19921;-74
2023/01/04 04:56:40;;;;;;;;;;;;;;;18.93;63.51;99978.50;2083818;28;19929;-74
2023/01/04 04:57:42;;;;;;;;;;;;;;;18.95;63.68;99979.19;2083441;28;20104;-73
2023/01/04 04:58:42;;;;;;;;;;;;;;;18.96;63.67;99978.16;2082609;28;19928;-73
2023/01/04 04:59:44;;;;;;;;;;;;;;;18.98;63.43;99987.72;2082234;28;19924;-73
2023/01/04 05:00:44;;;;;;;;;;;;;;;18.99;63.85;99977.81;2083337;28;19925;-73
2023/01/04 05:01:46;;;;;;;;;;;;;;;18.98;63.47;99976.97;2084296;28;19992;-73
2023/01/04 05:02:46;;;;;;;;;;;;;;;19.03;63.84;99983.66;2083930;28;19965;-73
2023/01/04 05:03:48;;;;;;;;;;;;;;;19.04;63.64;99980.81;2082431;28;19978;-74
2023/01/04 05:04:48;;;;;;;;;;;;;;;19.06;63.68;99981.50;2083385;28;19924;-74
2023/01/04 05:05:50;;;;;;;;;;;;;;;19.10;63.72;99982.81;2082984;28;19931;-73
2023/01/04 05:06:52;;;;;;;;;;;;;;;19.12;63.61;99986.16;2083412;28;19925;-73
2023/01/04 05:07:52;;;;;;;;;;;;;;;19.12;63.74;99982.66;2082020;28;20318;-73
2023/01/04 05:08:55;;;;;;;;;;;;;;;19.14;63.65;99983.31;2082956;28;19928;-73
2023/01/04 05:09:55;;;;;;;;;;;;;;;19.14;63.62;99986.00;2082771;28;19932;-73
2023/01/04 05:10:57;;;;;;;;;;;;;;;19.14;63.78;99986.84;2083673;28;19924;-73
2023/01/04 05:13:16;;;;;;;;;;;;;;;19.19;63.34;99988.97;2083618;28;19920;-73
2023/01/04 05:14:17;;;;;;;;;;;;;;;19.20;63.59;99990.69;2081206;28;20039;-73
2023/01/04 05:15:18;;;;;;;;;;;;;;;19.21;63.45;99986.97;2083673;28;19937;-73
2023/01/04 05:16:19;;;;;;;;;;;;;;;19.24;63.18;99992.00;2082988;28;19921;-74
2023/01/04 05:17:20;;;;;;;;;;;;;;;19.20;63.27;99986.13;2084274;28;19971;-74
2023/01/04 05:18:21;;;;;;;;;;;;;;;19.25;63.41;99988.31;2083725;28;19924;-74
2023/01/04 05:19:23;;;;;;;;;;;;;;;19.25;63.36;99991.00;2087090;28;20374;-74
2023/01/04 05:20:23;;;;;;;;;;;;;;;19.27;63.35;99990.81;2082271;28;19974;-73
2023/01/04 05:21:25;;;;;;;;;;;;;;;19.29;63.13;99992.31;2082540;28;20289;-73
2023/01/04 05:22:25;;;;;;;;;;;;;;;19.31;63.26;99990.28;2082661;28;19925;-74
2023/01/04 05:23:27;;;;;;;;;;;;;;;19.30;63.53;99996.66;2084509;28;20300;-73
2023/01/04 05:24:29;;;;;;;;;;;;;;;19.32;63.40;99993.81;2082640;28;19925;-74
2023/01/04 05:25:30;;;;;;;;;;;;;;;19.34;63.58;99998.00;2082734;28;20287;-74
2023/01/04 05:26:31;;;;;;;;;;;;;;;19.35;63.55;99998.84;2082495;28;19954;-73
2023/01/04 05:27:32;;;;;;;;;;;;;;;19.34;63.46;100000.69;2082765;28;19921;-73
2023/01/04 05:28:32;;;;;;;;;;;;;;;19.37;63.50;99999.50;2083211;28;19932;-74
2023/01/04 05:30:54;;;;;;;;;;;;;;;19.41;63.55;99998.13;2081142;28;19924;-74
2023/01/04 05:31:54;;;;;;;;;;;;;;;19.41;63.11;99993.59;2082757;28;19995;-73
2023/01/04 05:32:56;;;;;;;;;;;;;;;19.45;63.17;99998.66;2082519;28;20508;-73
2023/01/04 05:33:57;;;;;;;;;;;;;;;19.45;63.40;100004.03;2081229;28;19924;-73
2023/01/04 05:34:58;;;;;;;;;;;;;;;19.45;63.40;99999.47;2082822;28;19931;-73
2023/01/04 05:36:00;;;;;;;;;;;;;;;19.46;63.21;99998.47;2082320;28;19925;-73
2023/01/04 05:37:02;;;;;;;;;;;;;;;19.48;63.29;99998.28;2082399;28;20455;-73
2023/01/04 05:38:02;;;;;;;;;;;;;;;19.45;63.45;99996.78;2082392;28;19929;-74
2023/01/04 05:39:04;;;;;;;;;;;;;;;19.46;63.55;99997.63;2081632;28;19974;-74
2023/01/04 05:40:06;;;;;;;;;;;;;;;19.49;63.07;99999.97;2082615;28;19928;-73
2023/01/04 05:42:23;;;;;;;;;;;;;;;19.51;63.25;100004.16;2082739;28;19948;-73
2023/01/04 05:42:28;;;;;;;;;;;;;;;19.51;63.32;100004.16;2082501;28;19963;-73
2023/01/04 05:43:30;;;;;;;;;;;;;;;19.52;63.05;100005.81;2080599;28;19924;-74
2023/01/04 05:44:30;;;;;;;;;;;;;;;19.55;63.21;100010.00;2082783;28;19924;-74
2023/01/04 05:45:32;;;;;;;;;;;;;;;19.54;63.26;100008.34;2081406;28;19935;-74
2023/01/04 05:46:32;;;;;;;;;;;;;;;19.56;63.27;100017.09;2082567;28;19982;-73
2023/01/04 05:47:34;;;;;;;;;;;;;;;19.54;62.95;100011.03;2082824;28;19982;-73
2023/01/04 05:48:34;;;;;;;;;;;;;;;19.55;63.25;100018.91;2081566;28;19928;-75
2023/01/04 05:49:36;;;;;;;;;;;;;;;19.56;63.32;100017.91;2082682;28;20007;-74
2023/01/04 05:50:37;;;;;;;;;;;;;;;19.56;63.15;100017.09;2082594;28;19925;-73
2023/01/04 05:51:38;;;;;;;;;;;;;;;19.58;63.00;100023.09;2082494;28;19928;-73
2023/01/04 05:52:39;;;;;;;;;;;;;;;19.57;62.97;100021.44;2075532;28;19982;-75
2023/01/04 05:53:40;;;;;;;;;;;;;;;19.56;63.05;100020.63;2076870;28;19936;-74
2023/01/04 05:54:41;;;;;;;;;;;;;;;19.56;63.38;100023.31;2080852;28;19925;-74
2023/01/04 05:55:43;;;;;;;;;;;;;;;19.58;63.12;100023.09;2082653;28;19924;-75
2023/01/04 05:56:45;;;;;;;;;;;;;;;19.57;63.17;100022.28;2083155;28;19999;-75
2023/01/04 05:57:45;;;;;;;;;;;;;;;19.57;63.01;100027.66;2082736;28;19920;-73
2023/01/04 05:58:47;;;;;;;;;;;;;;;19.58;62.98;100023.09;2080562;28;19951;-73
2023/01/04 05:59:47;;;;;;;;;;;;;;;19.59;62.89;100027.50;2083781;28;20956;-73
2023/01/04 06:00:49;;;;;;;;;;;;;;;19.59;63.13;100028.34;2082203;28;19955;-74
2023/01/04 06:01:49;;;;;;;;;;;;;;;19.57;63.13;100026.81;2082955;28;19921;-74
2023/01/04 06:02:54;;;;;;;;;;;;;;;19.58;62.98;100017.72;2083122;28;19928;-73
2023/01/04 06:03:54;;;;;;;;;;;;;;;19.58;63.23;100025.81;2080317;28;20846;-73
2023/01/04 06:04:56;;;;;;;;;;;;;;;19.57;63.16;100029.53;2083073;28;19928;-74
2023/01/04 06:05:56;;;;;;;;;;;;;;;19.58;63.19;100032.03;2082517;28;19925;-74
2023/01/04 06:06:58;;;;;;;;;;;;;;;19.59;63.10;100028.34;2082420;28;19931;-73